Time;durP1;ratioP1;P1;durP2;ratioP2;P2;SDS_P1;SDS_P2;PMS_P1;PMS_P2;Temp;Humidity;BMP_temperature;BMP_pressure;BME280_temperature;BME280_humidity;BME280_pressure;Samples;Min_cycle;Max_cycle;Signal;HPM_P1;HPM_P2
2021/06/05 00:00:38;;;;;;;33.23;23.80;;;;;;;;;;5075717;28;20433;-53
2021/06/05 00:03:06;;;;;;;45.47;26.13;;;;;;;;;;5058321;28;20481;-55
2021/06/05 00:05:44;;;;;;;33.37;21.80;;;;;;;;;;5075513;28;20483;-54
2021/06/05 00:08:12;;;;;;;63.20;39.40;;;;;;;;;;5075145;28;20464;-54
2021/06/05 00:10:40;;;;;;;18.47;15.90;;;;;;;;;;5075416;28;20468;-55
2021/06/05 00:13:08;;;;;;;29.63;20.60;;;;;;;;;;5075418;28;20520;-56
2021/06/05 00:15:36;;;;;;;25.50;20.17;;;;;;;;;;5075869;28;20441;-54
2021/06/05 00:18:05;;;;;;;60.37;39.10;;;;;;;;;;5075327;28;20489;-56
2021/06/05 00:20:32;;;;;;;66.50;47.23;;;;;;;;;;5075421;28;20826;-58
2021/06/05 00:22:59;;;;;;;153.27;95.53;;;;;;;;;;5075467;28;20460;-55
2021/06/05 00:25:35;;;;;;;158.37;97.30;;;;;;;;;;5075660;28;20421;-57
2021/06/05 00:28:02;;;;;;;146.57;91.70;;;;;;;;;;5075658;28;20441;-51
2021/06/05 00:30:30;;;;;;;111.13;67.60;;;;;;;;;;5075334;28;20460;-54
2021/06/05 00:32:57;;;;;;;140.20;86.47;;;;;;;;;;5075981;28;20520;-56
2021/06/05 00:35:29;;;;;;;88.83;62.40;;;;;;;;;;5063195;28;20449;-56
2021/06/05 00:37:56;;;;;;;61.03;38.27;;;;;;;;;;5066268;28;20470;-53
2021/06/05 00:40:26;;;;;;;64.53;42.17;;;;;;;;;;5056529;28;20434;-53
2021/06/05 00:42:54;;;;;;;77.37;53.30;;;;;;;;;;5062422;28;20484;-59
2021/06/05 00:45:22;;;;;;;87.53;56.13;;;;;;;;;;5059360;28;20485;-49
2021/06/05 00:48:05;;;;;;;77.37;50.17;;;;;;;;;;5059074;28;20454;-52
2021/06/05 00:50:34;;;;;;;70.43;48.10;;;;;;;;;;5071271;28;20499;-56
2021/06/05 00:53:04;;;;;;;87.43;61.50;;;;;;;;;;5079854;28;20433;-53
2021/06/05 00:55:32;;;;;;;64.90;45.60;;;;;;;;;;5069500;28;20442;-58
2021/06/05 00:57:59;;;;;;;37.53;26.23;;;;;;;;;;5074423;28;20486;-56
2021/06/05 01:00:41;;;;;;;57.07;37.10;;;;;;;;;;5066132;28;20456;-58
2021/06/05 01:03:09;;;;;;;45.17;33.40;;;;;;;;;;5059803;28;20449;-57
2021/06/05 01:05:48;;;;;;;32.17;24.27;;;;;;;;;;5071222;28;20460;-52
2021/06/05 01:08:28;;;;;;;36.50;25.13;;;;;;;;;;5043158;28;20458;-57
2021/06/05 01:10:57;;;;;;;52.23;38.93;;;;;;;;;;5074256;28;20503;-51
2021/06/05 01:13:25;;;;;;;74.50;51.67;;;;;;;;;;5078453;28;20460;-56
2021/06/05 01:16:06;;;;;;;50.43;36.27;;;;;;;;;;5079226;28;20441;-57
2021/06/05 01:18:34;;;;;;;47.10;34.63;;;;;;;;;;5076944;28;20497;-56
2021/06/05 01:21:09;;;;;;;54.30;36.70;;;;;;;;;;5078573;28;20445;-58
2021/06/05 01:23:43;;;;;;;64.93;42.57;;;;;;;;;;5077993;28;20470;-51
2021/06/05 01:26:18;;;;;;;78.07;46.27;;;;;;;;;;5077997;28;20450;-54
2021/06/05 01:28:54;;;;;;;79.27;46.63;;;;;;;;;;5078455;28;20429;-57
2021/06/05 01:31:22;;;;;;;80.90;47.10;;;;;;;;;;5078767;28;20478;-57
2021/06/05 01:33:50;;;;;;;83.33;48.30;;;;;;;;;;5078180;28;20639;-55
2021/06/05 01:36:19;;;;;;;82.83;45.93;;;;;;;;;;5078466;28;20448;-55
2021/06/05 01:38:47;;;;;;;90.23;51.93;;;;;;;;;;5077320;28;20771;-56
2021/06/05 01:41:28;;;;;;;73.00;44.80;;;;;;;;;;5077906;28;20472;-55
2021/06/05 01:43:56;;;;;;;82.07;48.67;;;;;;;;;;5077588;28;20449;-57
2021/06/05 01:46:29;;;;;;;81.23;47.57;;;;;;;;;;5078309;28;20448;-51
2021/06/05 01:49:03;;;;;;;87.90;50.37;;;;;;;;;;5077956;28;20555;-60
2021/06/05 01:51:32;;;;;;;88.87;50.53;;;;;;;;;;5077551;28;20449;-55
2021/06/05 01:54:00;;;;;;;94.27;52.67;;;;;;;;;;5077452;28;20451;-56
2021/06/05 01:56:36;;;;;;;86.80;49.57;;;;;;;;;;5077708;28;20468;-57
2021/06/05 01:59:04;;;;;;;84.67;49.67;;;;;;;;;;5077425;28;20460;-59
2021/06/05 02:01:31;;;;;;;97.80;53.17;;;;;;;;;;5077443;28;20429;-53
2021/06/05 02:03:58;;;;;;;97.97;52.30;;;;;;;;;;5077919;28;20464;-62
2021/06/05 02:06:25;;;;;;;92.47;52.60;;;;;;;;;;5077440;28;20461;-51
2021/06/05 02:09:02;;;;;;;105.23;54.20;;;;;;;;;;5077750;28;20475;-57
2021/06/05 02:11:29;;;;;;;105.03;54.93;;;;;;;;;;5075703;28;20519;-54
2021/06/05 02:13:59;;;;;;;100.53;54.27;;;;;;;;;;5077652;28;20452;-58
2021/06/05 02:16:29;;;;;;;110.90;64.17;;;;;;;;;;5077100;28;20455;-53
2021/06/05 02:18:58;;;;;;;101.33;53.00;;;;;;;;;;5063589;28;20465;-56
2021/06/05 02:21:27;;;;;;;103.97;57.73;;;;;;;;;;5060232;28;20687;-57
2021/06/05 02:24:01;;;;;;;88.47;51.13;;;;;;;;;;5058339;28;20442;-54
2021/06/05 02:26:29;;;;;;;98.40;61.23;;;;;;;;;;5076952;28;20524;-56
2021/06/05 02:28:59;;;;;;;91.57;53.17;;;;;;;;;;5077487;28;20468;-55
2021/06/05 02:31:35;;;;;;;84.70;50.10;;;;;;;;;;5071439;28;20461;-58
2021/06/05 02:34:03;;;;;;;124.50;81.93;;;;;;;;;;5057368;28;20483;-59
2021/06/05 02:36:34;;;;;;;80.20;49.33;;;;;;;;;;5057173;28;20477;-57
2021/06/05 02:39:15;;;;;;;113.27;78.57;;;;;;;;;;5068692;28;20433;-55
2021/06/05 02:41:43;;;;;;;146.57;104.50;;;;;;;;;;5059863;28;20434;-54
2021/06/05 02:44:15;;;;;;;69.83;45.73;;;;;;;;;;5060704;28;20437;-54
2021/06/05 02:46:43;;;;;;;84.30;51.27;;;;;;;;;;5069877;28;20442;-59
2021/06/05 02:49:25;;;;;;;205.13;152.00;;;;;;;;;;5056822;28;20423;-59
2021/06/05 02:52:01;;;;;;;91.70;64.47;;;;;;;;;;5056770;28;20422;-54
2021/06/05 02:54:28;;;;;;;145.87;113.47;;;;;;;;;;5062642;28;20449;-58
2021/06/05 02:56:56;;;;;;;89.73;58.80;;;;;;;;;;5056653;28;20481;-59
2021/06/05 02:59:24;;;;;;;81.10;56.63;;;;;;;;;;5056698;28;20450;-61
2021/06/05 03:01:51;;;;;;;68.13;41.87;;;;;;;;;;5056318;28;20477;-56
2021/06/05 03:04:18;;;;;;;135.23;98.67;;;;;;;;;;5055797;28;20466;-53
2021/06/05 03:06:47;;;;;;;57.87;39.77;;;;;;;;;;5056460;28;20449;-51
2021/06/05 03:09:16;;;;;;;61.63;41.50;;;;;;;;;;5059874;28;20528;-59
2021/06/05 03:11:43;;;;;;;178.63;133.20;;;;;;;;;;5076215;28;20736;-61
2021/06/05 03:14:10;;;;;;;61.73;44.40;;;;;;;;;;5075525;28;20491;-59
2021/06/05 03:16:40;;;;;;;117.70;88.80;;;;;;;;;;5063970;28;20469;-51
2021/06/05 03:19:07;;;;;;;70.67;44.17;;;;;;;;;;5055877;28;20468;-52
2021/06/05 03:21:34;;;;;;;77.93;54.50;;;;;;;;;;5065570;28;20441;-58
2021/06/05 03:24:20;;;;;;;62.03;42.70;;;;;;;;;;5072856;28;20450;-57
2021/06/05 03:26:48;;;;;;;72.73;53.60;;;;;;;;;;5039331;28;20453;-57
2021/06/05 03:29:15;;;;;;;76.43;55.60;;;;;;;;;;5056484;28;20454;-60
2021/06/05 03:31:51;;;;;;;86.60;55.97;;;;;;;;;;5057154;28;20466;-57
2021/06/05 03:34:18;;;;;;;61.53;39.27;;;;;;;;;;5076452;28;20466;-58
2021/06/05 03:36:45;;;;;;;65.67;41.83;;;;;;;;;;5075937;28;20417;-57
2021/06/05 03:39:12;;;;;;;71.90;46.50;;;;;;;;;;5075993;28;20564;-59
2021/06/05 03:41:40;;;;;;;80.10;50.77;;;;;;;;;;5074784;28;20684;-56
2021/06/05 03:44:07;;;;;;;68.27;43.97;;;;;;;;;;5075412;28;20441;-51
2021/06/05 03:46:34;;;;;;;71.87;45.17;;;;;;;;;;5075870;28;20457;-53
2021/06/05 03:49:03;;;;;;;49.30;33.53;;;;;;;;;;5075547;28;20475;-52
2021/06/05 03:51:44;;;;;;;51.60;34.50;;;;;;;;;;5075967;28;20461;-63
2021/06/05 03:54:10;;;;;;;46.30;32.63;;;;;;;;;;5075567;28;20483;-55
2021/06/05 03:56:37;;;;;;;92.13;68.63;;;;;;;;;;5075901;28;20468;-61
2021/06/05 03:59:05;;;;;;;61.23;40.60;;;;;;;;;;5076075;28;20457;-57
2021/06/05 04:01:32;;;;;;;52.47;37.67;;;;;;;;;;5075833;28;20450;-61
2021/06/05 04:03:59;;;;;;;53.17;38.10;;;;;;;;;;5076070;28;20413;-55
2021/06/05 04:06:28;;;;;;;51.97;35.13;;;;;;;;;;5075965;28;20452;-52
2021/06/05 04:08:55;;;;;;;46.40;35.13;;;;;;;;;;5075468;28;20445;-55
2021/06/05 04:11:23;;;;;;;44.80;33.13;;;;;;;;;;5075785;28;20540;-58
2021/06/05 04:13:50;;;;;;;49.60;34.60;;;;;;;;;;5075882;28;20464;-59
2021/06/05 04:16:33;;;;;;;48.10;32.97;;;;;;;;;;5078598;28;20449;-58
2021/06/05 04:19:00;;;;;;;53.93;37.43;;;;;;;;;;5079491;28;20514;-57
2021/06/05 04:21:28;;;;;;;49.07;34.37;;;;;;;;;;5079816;28;20445;-58
2021/06/05 04:23:56;;;;;;;47.30;33.73;;;;;;;;;;5064612;28;20533;-54
2021/06/05 04:26:24;;;;;;;49.70;32.40;;;;;;;;;;5059835;28;20461;-59
2021/06/05 04:28:51;;;;;;;50.10;33.10;;;;;;;;;;5059897;28;20462;-52
2021/06/05 04:31:23;;;;;;;46.40;30.20;;;;;;;;;;5059898;28;20471;-60
2021/06/05 04:33:52;;;;;;;43.27;30.10;;;;;;;;;;5059256;28;20461;-55
2021/06/05 04:36:19;;;;;;;48.50;34.57;;;;;;;;;;5060114;28;20437;-55
2021/06/05 04:38:49;;;;;;;49.57;31.57;;;;;;;;;;5059202;28;20487;-61
2021/06/05 04:41:17;;;;;;;45.40;32.50;;;;;;;;;;5064754;28;20508;-60
2021/06/05 04:43:46;;;;;;;46.20;30.87;;;;;;;;;;5079968;28;20457;-50
2021/06/05 04:46:19;;;;;;;40.17;27.73;;;;;;;;;;5079688;28;20552;-52
2021/06/05 04:48:47;;;;;;;44.30;30.93;;;;;;;;;;5079623;28;20471;-56
2021/06/05 04:51:15;;;;;;;38.70;27.67;;;;;;;;;;5079565;28;20490;-56
2021/06/05 04:53:43;;;;;;;38.27;30.70;;;;;;;;;;5079844;28;20449;-58
2021/06/05 04:56:11;;;;;;;44.40;28.20;;;;;;;;;;5079233;28;20477;-60
2021/06/05 04:58:40;;;;;;;41.87;28.00;;;;;;;;;;5079153;28;20477;-57
2021/06/05 05:01:07;;;;;;;39.43;27.50;;;;;;;;;;5079671;28;20467;-59
2021/06/05 05:03:39;;;;;;;39.97;28.03;;;;;;;;;;5069264;28;20437;-60
2021/06/05 05:06:19;;;;;;;39.03;26.73;;;;;;;;;;5058927;28;20441;-57
2021/06/05 05:08:46;;;;;;;38.40;25.70;;;;;;;;;;5059166;28;20449;-49
2021/06/05 05:11:15;;;;;;;38.57;25.97;;;;;;;;;;5076142;28;20488;-59
2021/06/05 05:13:50;;;;;;;32.70;24.13;;;;;;;;;;5077961;28;20476;-54
2021/06/05 05:16:22;;;;;;;34.97;24.50;;;;;;;;;;5073339;28;20458;-54
2021/06/05 05:19:04;;;;;;;36.77;25.03;;;;;;;;;;5057366;28;20545;-60
2021/06/05 05:21:31;;;;;;;36.20;24.30;;;;;;;;;;5059506;28;20421;-50
2021/06/05 05:23:58;;;;;;;34.33;25.27;;;;;;;;;;5058845;28;20456;-54
2021/06/05 05:26:28;;;;;;;38.40;27.70;;;;;;;;;;5058640;28;20442;-51
2021/06/05 05:28:56;;;;;;;31.20;24.07;;;;;;;;;;5060776;28;20505;-56
2021/06/05 05:31:34;;;;;;;37.07;24.80;;;;;;;;;;5075921;28;20449;-61
2021/06/05 05:34:04;;;;;;;31.27;23.90;;;;;;;;;;5042007;28;20465;-57
2021/06/05 05:42:02;;;;;;;31.93;24.03;;;;;;;;;;5067917;28;20469;-61
2021/06/05 05:44:29;;;;;;;35.83;23.00;;;;;;;;;;5078548;28;20194;-60
2021/06/05 05:47:06;;;;;;;33.40;23.80;;;;;;;;;;5078490;28;20425;-56
2021/06/05 05:49:33;;;;;;;33.60;23.87;;;;;;;;;;5078018;28;20472;-61
2021/06/05 05:52:00;;;;;;;35.77;25.60;;;;;;;;;;5074164;28;20462;-53
2021/06/05 05:54:27;;;;;;;35.77;24.77;;;;;;;;;;5058316;28;20442;-56
2021/06/05 05:56:54;;;;;;;33.60;24.10;;;;;;;;;;5058025;28;20457;-57
2021/06/05 05:59:32;;;;;;;38.00;26.50;;;;;;;;;;5062189;28;20461;-56
2021/06/05 06:01:59;;;;;;;34.20;22.83;;;;;;;;;;5057864;28;20458;-54
2021/06/05 06:04:26;;;;;;;38.83;24.90;;;;;;;;;;5058082;28;20461;-58
2021/06/05 06:10:12;;;;;;;27.80;21.07;;;;;;;;;;5070088;28;20509;-55
2021/06/05 06:12:41;;;;;;;29.00;21.90;;;;;;;;;;5078333;28;20464;-59
2021/06/05 06:15:12;;;;;;;28.50;21.17;;;;;;;;;;5077753;28;20700;-59
2021/06/05 06:17:39;;;;;;;30.03;23.07;;;;;;;;;;5078040;28;20505;-57
2021/06/05 06:20:25;;;;;;;30.00;22.27;;;;;;;;;;5077265;28;20509;-56
2021/06/05 06:22:52;;;;;;;28.63;21.77;;;;;;;;;;5078027;28;20455;-51
2021/06/05 06:25:20;;;;;;;28.70;22.20;;;;;;;;;;5077627;28;20433;-53
2021/06/05 06:27:49;;;;;;;28.70;22.30;;;;;;;;;;5077910;28;20445;-60
2021/06/05 06:30:18;;;;;;;25.07;19.80;;;;;;;;;;5078197;28;20460;-54
2021/06/05 06:32:50;;;;;;;32.33;22.37;;;;;;;;;;5077776;28;20467;-51
2021/06/05 06:35:24;;;;;;;23.23;19.30;;;;;;;;;;5077343;28;20457;-59
2021/06/05 06:37:58;;;;;;;27.40;22.00;;;;;;;;;;5076866;28;20477;-52
2021/06/05 06:40:26;;;;;;;31.30;22.40;;;;;;;;;;5077009;28;20468;-55
2021/06/05 06:42:53;;;;;;;27.37;20.53;;;;;;;;;;5077746;28;20485;-55
2021/06/05 06:45:21;;;;;;;27.37;21.30;;;;;;;;;;5077603;28;20464;-55
2021/06/05 06:47:48;;;;;;;28.90;21.70;;;;;;;;;;5077300;28;20480;-53
2021/06/05 06:50:23;;;;;;;30.00;22.97;;;;;;;;;;5077141;28;20475;-56
2021/06/05 06:52:51;;;;;;;38.20;24.20;;;;;;;;;;5075028;28;20484;-53
2021/06/05 06:55:18;;;;;;;28.57;21.13;;;;;;;;;;5075234;28;20498;-58
2021/06/05 06:57:51;;;;;;;26.97;22.50;;;;;;;;;;5056663;28;20467;-53
2021/06/05 07:00:19;;;;;;;30.50;21.47;;;;;;;;;;5056402;28;20535;-52
2021/06/05 07:02:48;;;;;;;28.13;21.17;;;;;;;;;;5062036;28;20453;-55
2021/06/05 07:05:17;;;;;;;28.53;20.50;;;;;;;;;;5076632;28;20449;-58
2021/06/05 07:07:44;;;;;;;31.40;23.83;;;;;;;;;;5077131;28;20453;-54
2021/06/05 07:10:22;;;;;;;27.30;20.43;;;;;;;;;;5074327;28;20433;-55
2021/06/05 07:12:49;;;;;;;26.80;21.10;;;;;;;;;;5056647;28;20437;-54
2021/06/05 07:15:26;;;;;;;28.80;21.97;;;;;;;;;;5056921;28;20456;-59
2021/06/05 07:17:55;;;;;;;28.50;19.93;;;;;;;;;;5056833;28;20473;-59
2021/06/05 07:20:22;;;;;;;29.20;21.40;;;;;;;;;;5062663;28;20437;-53
2021/06/05 07:22:51;;;;;;;32.83;23.60;;;;;;;;;;5076592;28;20460;-58
2021/06/05 07:25:19;;;;;;;28.03;21.60;;;;;;;;;;5076395;28;20437;-48
2021/06/05 07:27:45;;;;;;;29.30;21.80;;;;;;;;;;5076180;28;20637;-52
2021/06/05 07:30:16;;;;;;;28.20;22.60;;;;;;;;;;5076699;28;20456;-56
2021/06/05 07:32:42;;;;;;;34.57;22.03;;;;;;;;;;5076317;28;20456;-54
2021/06/05 07:35:12;;;;;;;29.10;22.27;;;;;;;;;;5076411;28;20456;-55
2021/06/05 07:37:39;;;;;;;30.10;22.63;;;;;;;;;;5073969;28;20536;-58
2021/06/05 07:40:08;;;;;;;28.50;20.00;;;;;;;;;;5075935;28;20464;-56
2021/06/05 07:42:59;;;;;;;29.37;23.90;;;;;;;;;;5075919;28;20453;-61
2021/06/05 07:45:34;;;;;;;29.30;22.30;;;;;;;;;;5065858;28;20445;-55
2021/06/05 07:48:02;;;;;;;24.57;20.70;;;;;;;;;;5075574;28;20441;-52
2021/06/05 07:50:33;;;;;;;23.23;18.67;;;;;;;;;;5068065;28;20556;-61
2021/06/05 07:53:00;;;;;;;28.60;20.57;;;;;;;;;;5076084;28;20516;-56
2021/06/05 07:55:27;;;;;;;28.50;20.77;;;;;;;;;;5067782;28;20472;-54
2021/06/05 07:57:54;;;;;;;26.70;21.50;;;;;;;;;;5069542;28;20499;-57
2021/06/05 08:00:38;;;;;;;27.77;21.07;;;;;;;;;;5075723;28;20429;-52
2021/06/05 08:03:13;;;;;;;29.27;21.50;;;;;;;;;;5062470;28;20454;-63
2021/06/05 08:05:41;;;;;;;25.10;19.60;;;;;;;;;;5066692;28;20465;-57
2021/06/05 08:08:10;;;;;;;26.40;20.37;;;;;;;;;;5056023;28;20458;-58
2021/06/05 08:10:39;;;;;;;27.53;20.70;;;;;;;;;;5055786;28;20442;-55
2021/06/05 08:13:11;;;;;;;27.20;20.53;;;;;;;;;;5056629;28;20477;-60
2021/06/05 08:15:39;;;;;;;26.27;20.53;;;;;;;;;;5068515;28;20477;-54
2021/06/05 08:18:07;;;;;;;26.77;19.70;;;;;;;;;;5075321;28;20481;-60
2021/06/05 08:20:37;;;;;;;29.07;19.33;;;;;;;;;;5074782;28;20583;-57
2021/06/05 08:23:06;;;;;;;25.10;18.87;;;;;;;;;;5075491;28;20445;-55
2021/06/05 08:25:33;;;;;;;23.57;19.00;;;;;;;;;;5074624;28;20444;-61
2021/06/05 08:28:22;;;;;;;24.63;18.93;;;;;;;;;;5075413;28;20445;-57
2021/06/05 08:30:51;;;;;;;26.07;20.17;;;;;;;;;;5059845;28;20469;-59
2021/06/05 08:33:18;;;;;;;30.33;19.57;;;;;;;;;;5075334;28;20680;-57
2021/06/05 08:35:45;;;;;;;26.80;19.17;;;;;;;;;;5075084;28;20449;-58
2021/06/05 08:38:15;;;;;;;27.87;18.00;;;;;;;;;;5061980;28;20490;-58
2021/06/05 08:40:46;;;;;;;22.80;18.20;;;;;;;;;;5055163;28;20434;-58
2021/06/05 08:43:16;;;;;;;25.63;20.10;;;;;;;;;;5073232;28;20481;-58
2021/06/05 08:45:43;;;;;;;27.93;20.10;;;;;;;;;;5074618;28;20460;-55
2021/06/05 08:48:15;;;;;;;22.40;17.87;;;;;;;;;;5056462;28;20475;-58
2021/06/05 08:50:42;;;;;;;19.53;17.07;;;;;;;;;;5058683;28;20458;-56
2021/06/05 08:53:29;;;;;;;21.83;18.07;;;;;;;;;;5054572;28;20494;-55
2021/06/05 08:55:58;;;;;;;25.43;18.57;;;;;;;;;;5071957;28;20511;-63
2021/06/05 08:58:31;;;;;;;21.77;19.23;;;;;;;;;;5075604;28;20492;-56
2021/06/05 09:01:02;;;;;;;22.20;19.17;;;;;;;;;;5074753;28;20467;-57
2021/06/05 09:03:30;;;;;;;20.47;18.23;;;;;;;;;;5073637;28;20528;-57
2021/06/05 09:06:02;;;;;;;24.10;20.43;;;;;;;;;;5066791;28;20539;-60
2021/06/05 09:08:31;;;;;;;24.53;20.23;;;;;;;;;;5069706;28;20495;-59
2021/06/05 09:11:02;;;;;;;23.37;17.30;;;;;;;;;;5078346;28;20531;-61
2021/06/05 09:13:39;;;;;;;22.30;18.40;;;;;;;;;;5078509;28;20508;-63
2021/06/05 09:16:23;;;;;;;24.33;20.13;;;;;;;;;;5077888;28;20619;-57
2021/06/05 09:18:55;;;;;;;27.67;21.97;;;;;;;;;;5075143;28;20458;-59
2021/06/05 09:21:35;;;;;;;23.00;18.60;;;;;;;;;;5058140;28;20481;-62
2021/06/05 09:24:18;;;;;;;21.80;19.17;;;;;;;;;;5040171;28;20465;-59
2021/06/05 09:27:03;;;;;;;22.50;19.17;;;;;;;;;;5074997;28;20501;-59
2021/06/05 09:29:49;;;;;;;24.90;20.30;;;;;;;;;;5077455;28;20440;-57
2021/06/05 09:32:20;;;;;;;22.90;20.33;;;;;;;;;;5066820;28;20481;-53
2021/06/05 09:34:48;;;;;;;27.63;22.00;;;;;;;;;;5059766;28;20469;-53
2021/06/05 09:37:36;;;;;;;28.50;23.10;;;;;;;;;;5077726;28;20469;-57
2021/06/05 09:40:17;;;;;;;26.00;20.33;;;;;;;;;;5075857;28;20530;-58
2021/06/05 09:43:12;;;;;;;28.33;21.83;;;;;;;;;;5061445;28;20511;-56
2021/06/05 09:45:50;;;;;;;33.73;26.60;;;;;;;;;;5058052;28;20649;-59
2021/06/05 09:48:23;;;;;;;31.17;22.57;;;;;;;;;;5058222;28;20469;-56
2021/06/05 09:51:00;;;;;;;33.83;24.47;;;;;;;;;;5064060;28;20430;-53
2021/06/05 09:53:29;;;;;;;31.40;25.97;;;;;;;;;;5040339;28;20446;-55
2021/06/05 09:56:14;;;;;;;39.00;25.00;;;;;;;;;;5057406;28;20545;-57
2021/06/05 09:58:44;;;;;;;31.77;24.90;;;;;;;;;;5054654;28;20482;-57
2021/06/05 10:01:17;;;;;;;27.27;21.57;;;;;;;;;;5057317;28;20501;-52
2021/06/05 10:03:51;;;;;;;30.60;23.60;;;;;;;;;;5068059;28;20449;-59
2021/06/05 10:06:42;;;;;;;29.73;23.00;;;;;;;;;;5068065;28;20452;-54
2021/06/05 10:09:20;;;;;;;30.40;23.90;;;;;;;;;;5027581;28;20490;-57
2021/06/05 10:12:00;;;;;;;35.30;25.97;;;;;;;;;;5037341;28;20443;-58
2021/06/05 10:14:34;;;;;;;37.90;28.87;;;;;;;;;;5037137;28;20446;-59
2021/06/05 10:17:03;;;;;;;34.47;24.77;;;;;;;;;;5037280;28;20473;-61
2021/06/05 10:19:41;;;;;;;33.87;26.17;;;;;;;;;;5032255;28;20494;-57
2021/06/05 10:22:12;;;;;;;32.00;24.97;;;;;;;;;;5037121;28;20505;-56
2021/06/05 10:24:45;;;;;;;45.03;29.40;;;;;;;;;;5037201;28;20443;-55
2021/06/05 10:27:13;;;;;;;31.30;26.73;;;;;;;;;;5036606;28;20502;-57
2021/06/05 10:29:44;;;;;;;32.97;27.37;;;;;;;;;;5036685;28;20504;-59
2021/06/05 10:32:14;;;;;;;33.00;25.90;;;;;;;;;;5073903;28;20497;-59
2021/06/05 10:34:42;;;;;;;34.03;27.50;;;;;;;;;;5074905;28;20483;-53
2021/06/05 10:37:14;;;;;;;33.33;25.07;;;;;;;;;;5075608;28;20524;-58
2021/06/05 10:39:43;;;;;;;35.50;27.43;;;;;;;;;;5075421;28;20485;-58
2021/06/05 10:42:17;;;;;;;31.60;26.30;;;;;;;;;;5065229;28;20568;-56
2021/06/05 10:44:46;;;;;;;33.10;24.63;;;;;;;;;;5063471;28;20473;-56
2021/06/05 10:47:19;;;;;;;31.47;23.70;;;;;;;;;;5061817;28;20468;-57
2021/06/05 10:49:50;;;;;;;40.30;25.17;;;;;;;;;;5075800;28;20528;-58
2021/06/05 10:52:26;;;;;;;27.60;23.60;;;;;;;;;;5076156;28;20464;-62
2021/06/05 10:55:11;;;;;;;31.03;24.70;;;;;;;;;;5060228;28;20450;-58
2021/06/05 10:57:48;;;;;;;28.83;25.40;;;;;;;;;;5055662;28;20468;-59
2021/06/05 11:00:44;;;;;;;33.97;25.57;;;;;;;;;;5073682;28;20516;-57
2021/06/05 11:03:42;;;;;;;28.17;24.67;;;;;;;;;;5075584;28;20453;-56
2021/06/05 11:06:22;;;;;;;28.33;21.50;;;;;;;;;;5069890;28;20461;-57
2021/06/05 11:08:54;;;;;;;30.10;24.13;;;;;;;;;;5074825;28;20468;-57
2021/06/05 11:11:38;;;;;;;29.50;24.17;;;;;;;;;;5075302;28;20414;-56
2021/06/05 11:14:07;;;;;;;24.90;22.00;;;;;;;;;;5074976;28;20461;-58
2021/06/05 11:16:53;;;;;;;30.17;23.30;;;;;;;;;;5074610;28;20441;-61
2021/06/05 11:19:32;;;;;;;32.83;25.40;;;;;;;;;;5073959;28;20530;-60
2021/06/05 11:22:01;;;;;;;31.90;25.80;;;;;;;;;;5074269;28;20476;-56
2021/06/05 11:24:28;;;;;;;29.17;24.20;;;;;;;;;;5064165;28;20460;-58
2021/06/05 11:26:56;;;;;;;30.37;24.23;;;;;;;;;;5071061;28;20439;-56
2021/06/05 11:29:45;;;;;;;29.10;22.60;;;;;;;;;;5073275;28;20425;-54
2021/06/05 11:32:28;;;;;;;31.53;23.23;;;;;;;;;;5055879;28;20533;-57
2021/06/05 11:34:56;;;;;;;29.70;21.90;;;;;;;;;;5053674;28;20485;-60
2021/06/05 11:37:41;;;;;;;29.10;22.07;;;;;;;;;;5061849;28;20453;-61
2021/06/05 11:40:11;;;;;;;33.67;25.40;;;;;;;;;;5072799;28;20452;-60
2021/06/05 11:42:53;;;;;;;34.03;24.03;;;;;;;;;;5068665;28;20469;-54
2021/06/05 11:45:38;;;;;;;35.10;27.60;;;;;;;;;;5070302;28;20475;-57
2021/06/05 11:48:21;;;;;;;35.17;26.37;;;;;;;;;;5071996;28;20441;-58
2021/06/05 11:51:09;;;;;;;35.20;25.87;;;;;;;;;;5072375;28;20455;-53
2021/06/05 11:53:51;;;;;;;32.00;24.20;;;;;;;;;;5070991;28;20475;-59
2021/06/05 11:56:46;;;;;;;38.87;26.43;;;;;;;;;;5070011;28;20446;-59
2021/06/05 12:04:47;;;;;;;39.83;27.80;;;;;;;;;;5066927;28;20731;-60
2021/06/05 12:07:26;;;;;;;36.47;27.97;;;;;;;;;;5071718;28;20202;-57
2021/06/05 12:10:03;;;;;;;32.53;24.33;;;;;;;;;;5071699;28;20748;-57
2021/06/05 12:12:44;;;;;;;39.53;29.97;;;;;;;;;;5070909;28;20492;-54
2021/06/05 12:15:18;;;;;;;41.60;32.00;;;;;;;;;;5072939;28;20487;-55
2021/06/05 12:17:45;;;;;;;42.93;32.43;;;;;;;;;;5073530;28;20452;-58
2021/06/05 12:20:24;;;;;;;46.00;34.17;;;;;;;;;;5072377;28;20441;-59
2021/06/05 12:22:53;;;;;;;43.80;32.70;;;;;;;;;;5063270;28;20450;-58
2021/06/05 12:25:29;;;;;;;41.40;33.10;;;;;;;;;;5052521;28;20450;-57
2021/06/05 12:28:13;;;;;;;41.00;30.83;;;;;;;;;;5053045;28;20445;-54
2021/06/05 12:31:11;;;;;;;42.77;30.10;;;;;;;;;;5050932;28;20465;-60
2021/06/05 12:33:39;;;;;;;38.90;32.07;;;;;;;;;;5053251;28;20442;-61
2021/06/05 12:36:18;;;;;;;44.70;31.83;;;;;;;;;;5055440;28;20480;-59
2021/06/05 12:39:14;;;;;;;46.03;31.27;;;;;;;;;;5057651;28;20466;-53
2021/06/05 12:41:45;;;;;;;52.03;39.37;;;;;;;;;;5069445;28;20450;-61
2021/06/05 12:44:16;;;;;;;44.23;33.60;;;;;;;;;;5059995;28;20943;-57
2021/06/05 12:46:45;;;;;;;47.87;35.03;;;;;;;;;;5057191;28;20454;-54
2021/06/05 12:49:23;;;;;;;51.63;35.47;;;;;;;;;;5070800;28;20452;-55
2021/06/05 12:51:53;;;;;;;40.70;30.60;;;;;;;;;;5077108;28;20464;-61
2021/06/05 12:54:35;;;;;;;50.90;37.87;;;;;;;;;;5074325;28;20503;-57
2021/06/05 12:57:17;;;;;;;54.57;41.07;;;;;;;;;;5063106;28;20444;-58
2021/06/05 12:59:44;;;;;;;60.53;45.37;;;;;;;;;;5057537;28;20498;-58
2021/06/05 13:02:23;;;;;;;62.30;44.80;;;;;;;;;;5072498;28;20608;-58
2021/06/05 13:04:51;;;;;;;63.20;46.33;;;;;;;;;;5071783;28;20429;-57
2021/06/05 13:07:33;;;;;;;64.93;45.67;;;;;;;;;;5068034;28;20450;-58
2021/06/05 13:10:22;;;;;;;70.47;46.03;;;;;;;;;;5058717;28;20462;-56
2021/06/05 13:12:49;;;;;;;76.20;51.57;;;;;;;;;;5053332;28;20495;-58
2021/06/05 13:15:29;;;;;;;81.33;54.40;;;;;;;;;;5063302;28;20454;-55
2021/06/05 13:17:59;;;;;;;76.67;53.50;;;;;;;;;;5065521;28;20496;-59
2021/06/05 13:20:34;;;;;;;84.80;54.30;;;;;;;;;;5058446;28;20459;-57
2021/06/05 13:23:19;;;;;;;74.60;51.33;;;;;;;;;;5067894;28;20452;-56
2021/06/05 13:26:25;;;;;;;79.60;52.53;;;;;;;;;;5076776;28;20467;-59
2021/06/05 13:28:54;;;;;;;76.40;54.30;;;;;;;;;;5029012;28;20484;-58
2021/06/05 13:31:37;;;;;;;77.93;56.23;;;;;;;;;;5076717;28;20441;-55
2021/06/05 13:34:14;;;;;;;74.90;53.57;;;;;;;;;;5076305;28;20448;-56
2021/06/05 13:36:55;;;;;;;70.80;52.97;;;;;;;;;;5074511;28;20421;-60
2021/06/05 13:39:45;;;;;;;76.37;56.23;;;;;;;;;;5057809;28;20478;-55
2021/06/05 13:42:13;;;;;;;74.13;55.80;;;;;;;;;;5075718;28;20465;-56
2021/06/05 13:44:41;;;;;;;82.77;56.73;;;;;;;;;;5058029;28;20461;-59
2021/06/05 13:47:24;;;;;;;76.23;55.40;;;;;;;;;;5057451;28;20462;-57
2021/06/05 13:49:53;;;;;;;71.00;53.57;;;;;;;;;;5072446;28;20733;-60
2021/06/05 13:52:27;;;;;;;85.40;56.30;;;;;;;;;;5073386;28;20453;-59
2021/06/05 13:54:55;;;;;;;74.83;54.07;;;;;;;;;;5058485;28;20453;-57
2021/06/05 13:57:30;;;;;;;76.67;56.97;;;;;;;;;;5055890;28;20446;-59
2021/06/05 14:00:06;;;;;;;75.17;55.47;;;;;;;;;;5056164;28;20464;-57
2021/06/05 14:02:33;;;;;;;73.73;54.33;;;;;;;;;;5060731;28;20444;-56
2021/06/05 14:05:04;;;;;;;76.23;53.83;;;;;;;;;;5075835;28;20462;-55
2021/06/05 14:07:51;;;;;;;78.03;55.07;;;;;;;;;;5066561;28;20457;-58
2021/06/05 14:10:32;;;;;;;79.17;51.10;;;;;;;;;;5072744;28;20453;-56
2021/06/05 14:13:18;;;;;;;72.30;54.00;;;;;;;;;;5069007;28;20444;-59
2021/06/05 14:15:47;;;;;;;81.67;53.73;;;;;;;;;;5064442;28;20437;-58
2021/06/05 14:18:19;;;;;;;85.30;55.93;;;;;;;;;;5074163;28;20711;-55
2021/06/05 14:21:07;;;;;;;87.33;58.33;;;;;;;;;;5076392;28;20447;-60
2021/06/05 14:26:36;;;;;;;78.63;54.37;;;;;;;;;;5057738;28;20453;-58
2021/06/05 14:31:39;;;;;;;76.03;54.63;;;;;;;;;;5068460;28;20501;-58
2021/06/05 14:34:07;;;;;;;84.90;54.57;;;;;;;;;;5071112;28;20216;-54
2021/06/05 14:36:35;;;;;;;84.03;57.00;;;;;;;;;;5058261;28;20438;-56
2021/06/05 14:39:38;;;;;;;88.63;59.80;;;;;;;;;;5060865;28;20469;-56
2021/06/05 14:42:21;;;;;;;85.13;56.37;;;;;;;;;;5076162;28;20516;-56
2021/06/05 14:45:13;;;;;;;85.27;56.33;;;;;;;;;;5070477;28;20457;-60
2021/06/05 14:47:47;;;;;;;88.63;57.87;;;;;;;;;;5059631;28;20473;-61
2021/06/05 14:50:33;;;;;;;87.70;59.80;;;;;;;;;;5061096;28;20497;-53
2021/06/05 14:53:03;;;;;;;78.73;55.20;;;;;;;;;;5056428;28;20480;-57
2021/06/05 14:55:33;;;;;;;85.53;54.60;;;;;;;;;;5056193;28;20468;-60
2021/06/05 14:58:13;;;;;;;82.50;54.00;;;;;;;;;;5057398;28;20489;-59
2021/06/05 15:00:41;;;;;;;90.37;57.20;;;;;;;;;;5073118;28;20457;-53
2021/06/05 15:03:10;;;;;;;75.97;52.17;;;;;;;;;;5056501;28;20450;-52
2021/06/05 15:05:44;;;;;;;77.23;50.30;;;;;;;;;;5055428;28;20457;-63
2021/06/05 15:08:16;;;;;;;75.33;48.80;;;;;;;;;;5068547;28;20525;-57